createdAt,value
2022-07-26T00:00:49.506Z,27.58
2022-07-26T00:03:53.311Z,27.76
2022-07-26T00:06:56.561Z,27.84
2022-07-26T00:09:59.920Z,28.06
2022-07-26T00:13:04.698Z,28.01
2022-07-26T00:16:10.190Z,28.05
2022-07-26T00:19:13.713Z,27.66
2022-07-26T00:22:35.566Z,27.91
2022-07-26T00:25:39.774Z,28.04
2022-07-26T00:28:44.606Z,27.90
2022-07-26T00:31:50.735Z,28.15
2022-07-26T00:34:55.860Z,28.12
2022-07-26T00:37:59.565Z,27.82
2022-07-26T00:41:03.178Z,27.90
2022-07-26T00:44:08.171Z,27.63
2022-07-26T00:47:11.755Z,27.75
2022-07-26T00:50:18.091Z,27.78
2022-07-26T00:53:22.423Z,27.82
2022-07-26T00:56:28.222Z,27.62
2022-07-26T00:59:33.179Z,27.43
2022-07-26T01:02:38.917Z,27.96
2022-07-26T01:05:42.696Z,27.78
2022-07-26T01:08:46.326Z,27.83
2022-07-26T01:11:50.887Z,27.82
2022-07-26T01:14:55.684Z,27.88
2022-07-26T01:17:59.055Z,27.55
2022-07-26T01:21:09.093Z,27.51
2022-07-26T01:24:20.028Z,27.49
2022-07-26T01:27:24.680Z,27.38
2022-07-26T01:30:28.022Z,27.20
2022-07-26T01:33:31.507Z,27.52
2022-07-26T01:36:35.025Z,27.53
2022-07-26T01:39:40.037Z,27.51
2022-07-26T01:42:43.386Z,27.56
2022-07-26T01:45:47.144Z,27.34
2022-07-26T01:48:50.702Z,27.39
2022-07-26T01:51:56.564Z,27.06
2022-07-26T01:55:01.345Z,27.01
2022-07-26T01:58:05.268Z,27.22
2022-07-26T02:01:11.564Z,27.13
2022-07-26T02:04:35.908Z,27.06
2022-07-26T02:07:44.514Z,27.34
2022-07-26T02:11:04.805Z,27.42
2022-07-26T02:14:09.133Z,27.37
2022-07-26T02:17:13.673Z,27.09
2022-07-26T02:20:17.687Z,27.17
2022-07-26T02:23:23.697Z,27.05
2022-07-26T02:26:28.552Z,27.11
2022-07-26T02:29:32.380Z,27.27
2022-07-26T02:32:35.655Z,26.99
2022-07-26T02:35:41.505Z,26.88
2022-07-26T02:38:44.836Z,27.03
2022-07-26T02:41:50.463Z,27.25
2022-07-26T02:44:54.206Z,27.36
2022-07-26T02:47:57.885Z,27.53
2022-07-26T02:51:04.234Z,27.20
2022-07-26T02:54:07.846Z,27.32
2022-07-26T02:57:13.835Z,27.22
2022-07-26T03:00:19.742Z,27.05
2022-07-26T03:03:23.091Z,27.28
2022-07-26T03:06:27.720Z,27.11
2022-07-26T03:09:31.043Z,27.28
2022-07-26T03:12:35.914Z,27.22
2022-07-26T03:15:39.249Z,26.95
2022-07-26T03:18:42.559Z,27.14
2022-07-26T03:21:45.873Z,26.80
2022-07-26T03:24:49.219Z,26.73
2022-07-26T03:27:57.088Z,26.76
2022-07-26T03:31:01.468Z,27.25
2022-07-26T03:34:05.420Z,26.92
2022-07-26T03:37:09.144Z,27.19
2022-07-26T03:40:17.417Z,27.13
2022-07-26T03:43:23.376Z,27.45
2022-07-26T03:46:26.912Z,27.27
2022-07-26T03:49:30.372Z,27.67
2022-07-26T03:52:33.812Z,28.23
2022-07-26T03:56:00.013Z,28.66
2022-07-26T03:59:07.508Z,28.56
2022-07-26T04:02:10.872Z,29.04
2022-07-26T04:05:14.287Z,29.26
2022-07-26T04:08:18.261Z,29.51
2022-07-26T04:11:21.881Z,29.23
2022-07-26T04:14:31.391Z,29.39
2022-07-26T04:17:39.273Z,29.52
2022-07-26T04:20:43.005Z,29.76
2022-07-26T04:23:50.972Z,29.89
2022-07-26T04:26:54.755Z,29.91
2022-07-26T04:29:59.788Z,30.04
2022-07-26T04:33:03.485Z,30.16
2022-07-26T04:36:07.431Z,30.27
2022-07-26T04:39:11.349Z,30.28
2022-07-26T04:42:14.663Z,29.44
2022-07-26T04:45:20.134Z,29.12
2022-07-26T04:48:23.514Z,29.46
2022-07-26T04:51:26.930Z,30.11
2022-07-26T04:54:30.239Z,29.89
2022-07-26T04:57:33.527Z,30.46
2022-07-26T05:04:03.223Z,30.33
2022-07-26T05:07:06.561Z,30.13
2022-07-26T05:10:11.039Z,30.46
2022-07-26T05:13:14.470Z,30.47
2022-07-26T05:16:19.457Z,30.53
2022-07-26T05:19:23.016Z,30.61
2022-07-26T05:22:26.432Z,30.60
2022-07-26T05:25:30.074Z,30.53
2022-07-26T05:28:33.404Z,30.79
2022-07-26T05:31:38.199Z,30.90
2022-07-26T05:34:41.505Z,30.99
2022-07-26T05:37:45.002Z,31.43
2022-07-26T05:40:50.638Z,31.90
2022-07-26T05:43:54.408Z,31.48
2022-07-26T05:46:59.164Z,31.52
2022-07-26T05:50:02.859Z,31.72
2022-07-26T05:53:06.248Z,31.20
2022-07-26T05:56:10.822Z,31.90
2022-07-26T05:59:14.318Z,32.11
2022-07-26T06:02:19.121Z,32.07
2022-07-26T06:05:22.475Z,32.24
2022-07-26T06:08:26.989Z,32.33
2022-07-26T06:11:30.290Z,32.54
2022-07-26T06:14:33.612Z,31.81
2022-07-26T06:17:42.106Z,32.64
2022-07-26T06:20:47.864Z,32.96
2022-07-26T06:23:51.476Z,32.37
2022-07-26T06:26:58.109Z,32.45
2022-07-26T06:30:10.564Z,31.99
2022-07-26T06:33:15.331Z,31.75
2022-07-26T06:36:18.969Z,32.51
2022-07-26T06:39:22.441Z,32.99
2022-07-26T06:42:25.855Z,32.90
2022-07-26T06:45:29.619Z,33.28
2022-07-26T06:48:34.605Z,33.37
2022-07-26T06:51:38.529Z,33.23
2022-07-26T06:54:41.931Z,33.56
2022-07-26T06:57:50.318Z,32.88
2022-07-26T07:00:54.010Z,32.61
2022-07-26T07:03:58.865Z,32.71
2022-07-26T07:07:06.106Z,33.52
2022-07-26T07:10:10.326Z,33.29
2022-07-26T07:13:15.891Z,33.12
2022-07-26T07:16:19.249Z,33.22
2022-07-26T07:19:24.160Z,33.32
2022-07-26T07:22:27.596Z,33.75
2022-07-26T07:25:31.184Z,34.11
2022-07-26T07:28:38.501Z,34.28
2022-07-26T07:31:48.581Z,34.12
2022-07-26T07:34:54.116Z,34.52
2022-07-26T07:37:57.567Z,34.63
2022-07-26T07:41:00.908Z,34.48
2022-07-26T07:44:04.307Z,33.98
2022-07-26T07:47:09.038Z,34.77
2022-07-26T07:50:13.877Z,34.70
2022-07-26T07:53:17.345Z,35.27
2022-07-26T07:56:23.502Z,35.60
2022-07-26T07:59:27.440Z,35.25
2022-07-26T08:02:32.176Z,35.31
2022-07-26T08:05:40.420Z,35.24
2022-07-26T08:08:44.312Z,34.45
2022-07-26T08:11:50.509Z,34.73
2022-07-26T08:14:54.595Z,35.16
2022-07-26T08:17:57.954Z,35.02
2022-07-26T08:21:04.152Z,35.28
2022-07-26T08:24:08.339Z,35.31
2022-07-26T08:27:11.704Z,35.35
2022-07-26T08:30:15.426Z,35.38
2022-07-26T08:33:18.669Z,35.75
2022-07-26T08:36:23.947Z,35.31
2022-07-26T08:39:27.392Z,35.09
2022-07-26T08:42:30.789Z,35.30
2022-07-26T08:45:34.356Z,35.15
2022-07-26T08:48:38.749Z,35.60
2022-07-26T08:51:44.995Z,36.05
2022-07-26T08:54:50.499Z,35.51
2022-07-26T08:57:53.905Z,35.80
2022-07-26T09:01:08.318Z,36.21
2022-07-26T09:04:44.026Z,35.90
2022-07-26T09:07:47.509Z,35.73
2022-07-26T09:10:50.901Z,35.84
2022-07-26T09:13:56.372Z,36.20
2022-07-26T09:17:00.966Z,36.33
2022-07-26T09:20:14.500Z,36.03
2022-07-26T09:23:19.370Z,35.80
2022-07-26T09:26:22.852Z,36.73
2022-07-26T09:29:26.224Z,36.32
2022-07-26T09:32:29.662Z,36.85
2022-07-26T09:35:51.040Z,36.54
2022-07-26T09:38:59.215Z,36.67
2022-07-26T09:45:34.654Z,36.87
2022-07-26T09:49:09.251Z,36.56
2022-07-26T09:52:02.977Z,37.09
2022-07-26T09:55:09.407Z,36.82
2022-07-26T09:58:14.649Z,37.10
2022-07-26T10:01:18.065Z,36.46
2022-07-26T10:04:23.374Z,36.79
2022-07-26T10:07:26.758Z,36.58
2022-07-26T10:10:34.819Z,36.86
2022-07-26T10:13:39.757Z,37.19
2022-07-26T10:16:43.130Z,36.98
2022-07-26T10:19:47.532Z,37.22
2022-07-26T10:22:51.228Z,37.10
2022-07-26T10:25:56.004Z,36.73
2022-07-26T10:29:25.859Z,36.73
2022-07-26T10:32:33.060Z,36.89
2022-07-26T10:35:40.869Z,37.08
2022-07-26T10:38:59.765Z,36.65
2022-07-26T10:42:06.587Z,36.71
2022-07-26T10:45:18.883Z,36.81
2022-07-26T10:48:24.962Z,37.11
2022-07-26T10:51:30.938Z,36.85
2022-07-26T10:54:34.312Z,36.98
2022-07-26T10:57:40.394Z,37.31
2022-07-26T11:00:56.205Z,36.72
2022-07-26T11:03:59.739Z,37.15
2022-07-26T11:07:03.139Z,37.62
2022-07-26T11:10:07.141Z,37.06
2022-07-26T11:13:19.665Z,36.82
2022-07-26T11:16:23.530Z,37.44
2022-07-26T11:19:29.414Z,37.45
2022-07-26T11:22:33.067Z,36.84
2022-07-26T11:25:36.333Z,37.81
2022-07-26T11:28:55.352Z,38.02
2022-07-26T11:32:04.654Z,37.64
2022-07-26T11:35:19.895Z,37.17
2022-07-26T11:38:24.546Z,36.64
2022-07-26T11:41:34.563Z,37.41
2022-07-26T11:44:44.290Z,37.86
2022-07-26T11:47:48.087Z,37.83
2022-07-26T11:50:51.616Z,37.36
2022-07-26T11:53:59.866Z,37.65
2022-07-26T11:57:05.998Z,38.52
2022-07-26T12:00:12.639Z,38.66
2022-07-26T12:03:15.967Z,38.32
2022-07-26T12:06:20.964Z,37.96
2022-07-26T12:09:32.728Z,38.07
2022-07-26T12:12:36.161Z,37.44
2022-07-26T12:15:48.498Z,37.72
2022-07-26T12:18:52.789Z,37.55
2022-07-26T12:21:58.508Z,37.97
2022-07-26T12:25:02.243Z,38.07
2022-07-26T12:28:07.769Z,37.46
2022-07-26T12:31:25.689Z,37.42
2022-07-26T12:34:29.124Z,37.77
2022-07-26T12:37:40.401Z,38.26
2022-07-26T12:40:44.356Z,38.67
2022-07-26T12:43:49.863Z,38.56
2022-07-26T12:46:54.664Z,38.68
2022-07-26T12:49:57.996Z,38.47
2022-07-26T12:53:02.894Z,38.41
2022-07-26T12:56:06.762Z,38.22
2022-07-26T12:59:12.281Z,38.29
2022-07-26T13:02:23.367Z,38.41
2022-07-26T13:05:27.034Z,38.48
2022-07-26T13:08:36.411Z,38.45
2022-07-26T13:11:39.756Z,38.08
2022-07-26T13:14:43.343Z,37.84
2022-07-26T13:17:48.094Z,37.82
2022-07-26T13:20:51.573Z,38.20
2022-07-26T13:23:54.978Z,38.42
2022-07-26T13:27:00.396Z,38.09
2022-07-26T13:30:03.762Z,37.94
2022-07-26T13:33:08.505Z,37.85
2022-07-26T13:36:11.832Z,38.17
2022-07-26T13:39:15.227Z,38.44
2022-07-26T13:42:19.461Z,38.45
2022-07-26T13:45:22.837Z,37.98
2022-07-26T13:48:29.257Z,37.71
2022-07-26T13:51:51.700Z,37.75
2022-07-26T13:54:55.141Z,37.87
2022-07-26T13:57:58.633Z,38.04
2022-07-26T14:01:03.349Z,38.25
2022-07-26T14:04:10.194Z,38.58
2022-07-26T14:07:13.857Z,38.76
2022-07-26T14:10:17.212Z,39.00
2022-07-26T14:13:20.634Z,38.95
2022-07-26T14:16:27.631Z,38.79
2022-07-26T14:19:32.461Z,38.64
2022-07-26T14:22:35.861Z,38.80
2022-07-26T14:25:39.144Z,38.50
2022-07-26T14:28:45.070Z,38.58
2022-07-26T14:31:48.327Z,38.43
2022-07-26T14:34:53.083Z,38.44
2022-07-26T14:37:56.544Z,38.29
2022-07-26T14:41:01.216Z,37.97
2022-07-26T14:44:05.577Z,37.55
2022-07-26T14:47:08.892Z,37.81
2022-07-26T14:50:15.826Z,37.89
2022-07-26T14:53:19.787Z,37.89
2022-07-26T14:56:23.491Z,38.13
2022-07-26T14:59:26.854Z,37.95
2022-07-26T15:02:30.251Z,37.62
2022-07-26T15:05:35.241Z,37.96
2022-07-26T15:08:38.628Z,37.70
2022-07-26T15:11:42.046Z,37.50
2022-07-26T15:14:46.281Z,37.57
2022-07-26T15:17:49.565Z,37.64
2022-07-26T15:20:54.359Z,37.84
2022-07-26T15:23:57.679Z,37.64
2022-07-26T15:27:01.024Z,37.89
2022-07-26T15:30:10.255Z,37.80
2022-07-26T15:33:18.237Z,37.63
2022-07-26T15:36:22.878Z,37.64
2022-07-26T15:39:26.315Z,37.70
2022-07-26T15:42:32.155Z,37.99
2022-07-26T15:45:37.497Z,37.61
2022-07-26T15:48:41.015Z,37.62
2022-07-26T15:51:46.061Z,37.55
2022-07-26T15:54:49.551Z,37.49
2022-07-26T15:57:52.834Z,37.43
2022-07-26T16:00:56.173Z,37.11
2022-07-26T16:03:59.568Z,37.12
2022-07-26T16:07:04.423Z,36.90
2022-07-26T16:10:08.987Z,37.11
2022-07-26T16:13:12.387Z,36.90
2022-07-26T16:16:15.884Z,37.23
2022-07-26T16:19:19.344Z,37.08
2022-07-26T16:22:24.408Z,36.88
2022-07-26T16:25:27.888Z,37.03
2022-07-26T16:28:31.231Z,36.91
2022-07-26T16:31:34.703Z,36.74
2022-07-26T16:34:38.232Z,36.66
2022-07-26T16:37:43.037Z,36.46
2022-07-26T16:40:46.353Z,36.43
2022-07-26T16:43:50.634Z,36.45
2022-07-26T16:46:54.202Z,36.33
2022-07-26T16:49:57.642Z,36.16
2022-07-26T16:53:02.487Z,36.06
2022-07-26T16:56:06.374Z,35.96
2022-07-26T16:59:10.631Z,36.00
2022-07-26T17:02:14.228Z,35.83
2022-07-26T17:05:17.604Z,35.85
2022-07-26T17:08:22.964Z,35.78
2022-07-26T17:11:26.265Z,35.67
2022-07-26T17:14:29.685Z,35.57
2022-07-26T17:17:32.996Z,35.50
2022-07-26T17:20:36.384Z,35.48
2022-07-26T17:23:41.173Z,35.26
2022-07-26T17:26:44.518Z,35.39
2022-07-26T17:29:48.051Z,35.40
2022-07-26T17:32:52.276Z,35.27
2022-07-26T17:35:56.508Z,35.26
2022-07-26T17:39:06.063Z,35.12
2022-07-26T17:42:11.777Z,35.00
2022-07-26T17:45:18.291Z,34.94
2022-07-26T17:48:21.571Z,34.99
2022-07-26T17:51:24.845Z,34.98
2022-07-26T17:54:29.593Z,34.87
2022-07-26T17:57:32.958Z,34.87
2022-07-26T18:00:36.420Z,34.82
2022-07-26T18:03:39.874Z,34.79
2022-07-26T18:06:43.602Z,34.63
2022-07-26T18:09:48.365Z,34.51
2022-07-26T18:12:51.664Z,34.46
2022-07-26T18:15:55.352Z,34.34
2022-07-26T18:18:58.750Z,34.25
2022-07-26T18:22:05.908Z,34.26
2022-07-26T18:25:11.775Z,34.28
2022-07-26T18:28:16.071Z,34.27
2022-07-26T18:31:19.731Z,34.18
2022-07-26T18:34:23.152Z,34.21
2022-07-26T18:37:26.546Z,34.12
2022-07-26T18:40:32.399Z,34.05
2022-07-26T18:43:35.797Z,34.06
2022-07-26T18:46:39.204Z,34.05
2022-07-26T18:49:43.574Z,34.00
2022-07-26T18:52:47.376Z,33.87
2022-07-26T18:55:52.305Z,33.94
2022-07-26T18:58:55.767Z,33.95
2022-07-26T19:02:00.309Z,33.81
2022-07-26T19:05:04.035Z,33.83
2022-07-26T19:08:07.453Z,33.69
2022-07-26T19:11:12.140Z,33.63
2022-07-26T19:14:15.512Z,33.65
2022-07-26T19:17:18.804Z,33.66
2022-07-26T19:20:22.234Z,33.66
2022-07-26T19:23:25.578Z,33.58
2022-07-26T19:26:31.153Z,33.63
2022-07-26T19:29:34.502Z,33.53
2022-07-26T19:32:38.627Z,33.36
2022-07-26T19:35:41.940Z,33.19
2022-07-26T19:38:45.346Z,33.31
2022-07-26T19:41:59.729Z,33.17
2022-07-26T19:45:03.518Z,33.25
2022-07-26T19:48:07.821Z,33.15
2022-07-26T19:51:11.166Z,32.76
2022-07-26T19:54:14.623Z,32.84
2022-07-26T19:57:19.927Z,32.93
2022-07-26T20:00:23.757Z,32.84
2022-07-26T20:03:27.090Z,32.91
2022-07-26T20:06:30.660Z,32.87
2022-07-26T20:09:36.565Z,32.82
2022-07-26T20:12:42.649Z,32.88
2022-07-26T20:15:47.171Z,32.70
2022-07-26T20:18:50.476Z,32.48
2022-07-26T20:21:53.798Z,32.58
2022-07-26T20:24:57.205Z,32.63
2022-07-26T20:28:01.952Z,32.59
2022-07-26T20:31:05.327Z,32.56
2022-07-26T20:34:08.672Z,32.55
2022-07-26T20:37:11.997Z,32.46
2022-07-26T20:40:17.733Z,31.91
2022-07-26T20:43:22.944Z,31.65
2022-07-26T20:46:26.293Z,31.76
2022-07-26T20:49:29.953Z,31.76
2022-07-26T20:52:33.317Z,31.21
2022-07-26T20:55:37.178Z,31.12
2022-07-26T20:58:42.010Z,30.96
2022-07-26T21:01:45.311Z,30.88
2022-07-26T21:04:48.510Z,31.24
2022-07-26T21:07:58.707Z,31.46
2022-07-26T21:11:03.013Z,31.08
2022-07-26T21:14:07.621Z,30.82
2022-07-26T21:17:12.243Z,30.92
2022-07-26T21:20:15.812Z,30.76
2022-07-26T21:23:19.086Z,30.71
2022-07-26T21:26:23.443Z,30.53
2022-07-26T21:29:27.992Z,30.75
2022-07-26T21:32:31.919Z,30.72
2022-07-26T21:35:35.212Z,30.60
2022-07-26T21:38:38.400Z,30.67
2022-07-26T21:41:41.593Z,30.75
2022-07-26T21:44:46.190Z,30.77
2022-07-26T21:47:49.351Z,30.64
2022-07-26T21:50:52.619Z,30.33
2022-07-26T21:53:55.863Z,30.48
2022-07-26T21:56:59.035Z,30.52
2022-07-26T22:00:03.636Z,30.61
2022-07-26T22:03:10.270Z,30.53
2022-07-26T22:06:13.499Z,30.52
2022-07-26T22:09:16.714Z,30.46
2022-07-26T22:12:19.888Z,30.38
2022-07-26T22:15:24.568Z,30.21
2022-07-26T22:18:28.044Z,29.79
2022-07-26T22:21:31.327Z,29.82
2022-07-26T22:24:34.574Z,30.03
2022-07-26T22:27:37.809Z,30.03
2022-07-26T22:30:42.771Z,30.11
2022-07-26T22:33:45.969Z,29.98
2022-07-26T22:36:49.126Z,30.16
2022-07-26T22:39:52.294Z,30.15
2022-07-26T22:42:58.524Z,30.28
2022-07-26T22:46:03.121Z,30.28
2022-07-26T22:49:06.484Z,30.33
2022-07-26T22:52:15.518Z,30.37
2022-07-26T22:55:18.777Z,29.73
2022-07-26T22:58:22.018Z,29.65
2022-07-26T23:01:26.703Z,29.64
2022-07-26T23:04:29.989Z,29.74
2022-07-26T23:07:52.148Z,29.48
2022-07-26T23:10:55.874Z,29.16
2022-07-26T23:13:59.319Z,28.90
2022-07-26T23:17:04.039Z,28.91
2022-07-26T23:20:09.385Z,29.24
2022-07-26T23:23:12.638Z,29.19
2022-07-26T23:26:15.896Z,29.06
2022-07-26T23:29:19.377Z,29.27
2022-07-26T23:32:24.020Z,29.22
2022-07-26T23:35:27.260Z,28.93
2022-07-26T23:38:30.495Z,29.05
2022-07-26T23:41:33.933Z,28.94
2022-07-26T23:44:38.446Z,29.20
2022-07-26T23:47:43.124Z,28.80
2022-07-26T23:50:46.475Z,29.04
2022-07-26T23:53:49.883Z,29.04
2022-07-26T23:56:53.296Z,28.84
2022-07-26T23:59:56.646Z,28.78
